sensor_id;sensor_type;location;lat;lon;timestamp;temperature;humidity
12481;DHT22;6305;48.398;11.762;2022-11-23T00:01:21;3.10;99.90
12481;DHT22;6305;48.398;11.762;2022-11-23T00:03:49;3.00;99.90
12481;DHT22;6305;48.398;11.762;2022-11-23T00:06:17;2.90;99.90
12481;DHT22;6305;48.398;11.762;2022-11-23T00:08:45;2.90;99.90
12481;DHT22;6305;48.398;11.762;2022-11-23T00:11:12;2.80;99.90
12481;DHT22;6305;48.398;11.762;2022-11-23T00:13:40;2.90;99.90
12481;DHT22;6305;48.398;11.762;2022-11-23T00:16:11;2.80;99.90
12481;DHT22;6305;48.398;11.762;2022-11-23T00:18:38;2.90;99.90
12481;DHT22;6305;48.398;11.762;2022-11-23T00:21:06;3.00;99.90
12481;DHT22;6305;48.398;11.762;2022-11-23T00:23:33;3.00;99.90
12481;DHT22;6305;48.398;11.762;2022-11-23T00:25:59;3.10;99.90
12481;DHT22;6305;48.398;11.762;2022-11-23T00:28:26;3.20;99.90
12481;DHT22;6305;48.398;11.762;2022-11-23T00:30:53;3.20;99.90
12481;DHT22;6305;48.398;11.762;2022-11-23T00:33:21;3.30;99.90
12481;DHT22;6305;48.398;11.762;2022-11-23T00:35:58;3.30;99.90
12481;DHT22;6305;48.398;11.762;2022-11-23T00:38:25;3.30;99.90
12481;DHT22;6305;48.398;11.762;2022-11-23T00:40:57;3.30;99.90
12481;DHT22;6305;48.398;11.762;2022-11-23T00:43:24;3.40;99.90
12481;DHT22;6305;48.398;11.762;2022-11-23T00:46:01;3.40;99.90
12481;DHT22;6305;48.398;11.762;2022-11-23T00:48:30;3.40;99.90
12481;DHT22;6305;48.398;11.762;2022-11-23T00:50:56;3.40;99.90
12481;DHT22;6305;48.398;11.762;2022-11-23T00:53:23;3.50;99.90
12481;DHT22;6305;48.398;11.762;2022-11-23T00:55:51;3.50;99.90
12481;DHT22;6305;48.398;11.762;2022-11-23T00:58:18;3.50;99.90
12481;DHT22;6305;48.398;11.762;2022-11-23T01:00:45;3.50;99.90
12481;DHT22;6305;48.398;11.762;2022-11-23T01:03:12;3.50;99.90
12481;DHT22;6305;48.398;11.762;2022-11-23T01:05:40;3.60;99.90
12481;DHT22;6305;48.398;11.762;2022-11-23T01:08:07;3.50;99.90
12481;DHT22;6305;48.398;11.762;2022-11-23T01:10:34;3.60;99.90
12481;DHT22;6305;48.398;11.762;2022-11-23T01:13:01;3.50;99.90
12481;DHT22;6305;48.398;11.762;2022-11-23T01:15:28;3.60;99.90
12481;DHT22;6305;48.398;11.762;2022-11-23T01:17:54;3.50;99.90
12481;DHT22;6305;48.398;11.762;2022-11-23T01:20:21;3.50;99.90
12481;DHT22;6305;48.398;11.762;2022-11-23T01:22:51;3.40;99.90
12481;DHT22;6305;48.398;11.762;2022-11-23T01:25:18;3.30;99.90
12481;DHT22;6305;48.398;11.762;2022-11-23T01:27:45;3.30;99.90
12481;DHT22;6305;48.398;11.762;2022-11-23T01:30:12;3.20;99.90
12481;DHT22;6305;48.398;11.762;2022-11-23T01:32:39;3.10;99.90
12481;DHT22;6305;48.398;11.762;2022-11-23T01:35:06;3.10;99.90
12481;DHT22;6305;48.398;11.762;2022-11-23T01:37:33;3.00;99.90
12481;DHT22;6305;48.398;11.762;2022-11-23T01:40:01;3.00;99.90
12481;DHT22;6305;48.398;11.762;2022-11-23T01:42:50;3.00;99.90
12481;DHT22;6305;48.398;11.762;2022-11-23T01:45:36;3.00;99.90
12481;DHT22;6305;48.398;11.762;2022-11-23T01:48:10;3.00;99.90
12481;DHT22;6305;48.398;11.762;2022-11-23T01:50:38;3.10;99.90
12481;DHT22;6305;48.398;11.762;2022-11-23T01:53:06;3.10;99.90
12481;DHT22;6305;48.398;11.762;2022-11-23T01:55:35;3.10;99.90
12481;DHT22;6305;48.398;11.762;2022-11-23T01:58:02;3.10;99.90
12481;DHT22;6305;48.398;11.762;2022-11-23T02:00:30;3.20;99.90
12481;DHT22;6305;48.398;11.762;2022-11-23T02:02:59;3.20;99.90
12481;DHT22;6305;48.398;11.762;2022-11-23T02:05:31;3.20;99.90
12481;DHT22;6305;48.398;11.762;2022-11-23T02:07:59;3.20;99.90
12481;DHT22;6305;48.398;11.762;2022-11-23T02:10:28;3.20;99.90
12481;DHT22;6305;48.398;11.762;2022-11-23T02:13:00;3.10;99.90
12481;DHT22;6305;48.398;11.762;2022-11-23T02:15:27;3.10;99.90
12481;DHT22;6305;48.398;11.762;2022-11-23T02:17:54;3.00;99.90
12481;DHT22;6305;48.398;11.762;2022-11-23T02:20:21;2.80;99.90
12481;DHT22;6305;48.398;11.762;2022-11-23T02:22:56;2.80;99.90
12481;DHT22;6305;48.398;11.762;2022-11-23T02:25:32;2.70;99.90
12481;DHT22;6305;48.398;11.762;2022-11-23T02:28:02;2.70;99.90
12481;DHT22;6305;48.398;11.762;2022-11-23T02:30:30;2.70;99.90
12481;DHT22;6305;48.398;11.762;2022-11-23T02:32:57;2.70;99.90
12481;DHT22;6305;48.398;11.762;2022-11-23T02:35:25;2.70;99.90
12481;DHT22;6305;48.398;11.762;2022-11-23T02:37:52;2.70;99.90
12481;DHT22;6305;48.398;11.762;2022-11-23T02:40:25;2.70;99.90
12481;DHT22;6305;48.398;11.762;2022-11-23T02:42:53;2.70;99.90
12481;DHT22;6305;48.398;11.762;2022-11-23T02:45:27;2.60;99.90
12481;DHT22;6305;48.398;11.762;2022-11-23T02:47:57;2.50;99.90
12481;DHT22;6305;48.398;11.762;2022-11-23T02:50:24;2.50;99.90
12481;DHT22;6305;48.398;11.762;2022-11-23T02:52:50;2.30;99.90
12481;DHT22;6305;48.398;11.762;2022-11-23T02:55:17;2.20;99.90
12481;DHT22;6305;48.398;11.762;2022-11-23T02:57:44;2.10;99.90
12481;DHT22;6305;48.398;11.762;2022-11-23T03:00:12;2.00;99.90
12481;DHT22;6305;48.398;11.762;2022-11-23T03:02:40;1.90;99.90
12481;DHT22;6305;48.398;11.762;2022-11-23T03:05:07;1.80;99.90
12481;DHT22;6305;48.398;11.762;2022-11-23T03:07:34;1.80;99.90
12481;DHT22;6305;48.398;11.762;2022-11-23T03:10:01;1.70;99.90
12481;DHT22;6305;48.398;11.762;2022-11-23T03:12:28;1.60;99.90
12481;DHT22;6305;48.398;11.762;2022-11-23T03:14:55;1.60;99.90
12481;DHT22;6305;48.398;11.762;2022-11-23T03:17:22;1.50;99.90
12481;DHT22;6305;48.398;11.762;2022-11-23T03:19:50;1.50;99.90
12481;DHT22;6305;48.398;11.762;2022-11-23T03:22:17;1.50;99.90
12481;DHT22;6305;48.398;11.762;2022-11-23T03:24:44;1.50;99.90
12481;DHT22;6305;48.398;11.762;2022-11-23T03:27:10;1.60;99.90
12481;DHT22;6305;48.398;11.762;2022-11-23T03:29:37;1.70;99.90
12481;DHT22;6305;48.398;11.762;2022-11-23T03:32:05;1.70;99.90
12481;DHT22;6305;48.398;11.762;2022-11-23T03:34:33;1.80;99.90
12481;DHT22;6305;48.398;11.762;2022-11-23T03:37:06;1.80;99.90
12481;DHT22;6305;48.398;11.762;2022-11-23T03:39:33;1.80;99.90
12481;DHT22;6305;48.398;11.762;2022-11-23T03:42:00;1.70;99.90
12481;DHT22;6305;48.398;11.762;2022-11-23T03:44:26;1.60;99.90
12481;DHT22;6305;48.398;11.762;2022-11-23T03:46:53;1.60;99.90
12481;DHT22;6305;48.398;11.762;2022-11-23T03:49:20;1.60;99.90
12481;DHT22;6305;48.398;11.762;2022-11-23T03:51:47;1.60;99.90
12481;DHT22;6305;48.398;11.762;2022-11-23T03:54:15;1.70;99.90
12481;DHT22;6305;48.398;11.762;2022-11-23T03:56:42;1.90;99.90
12481;DHT22;6305;48.398;11.762;2022-11-23T03:59:08;2.00;99.90
12481;DHT22;6305;48.398;11.762;2022-11-23T04:01:35;2.00;99.90
12481;DHT22;6305;48.398;11.762;2022-11-23T04:04:02;2.10;99.90
12481;DHT22;6305;48.398;11.762;2022-11-23T04:06:29;2.20;99.90
12481;DHT22;6305;48.398;11.762;2022-11-23T04:08:56;2.10;99.90
12481;DHT22;6305;48.398;11.762;2022-11-23T04:11:24;2.10;99.90
12481;DHT22;6305;48.398;11.762;2022-11-23T04:13:51;2.00;99.90
12481;DHT22;6305;48.398;11.762;2022-11-23T04:16:18;2.00;99.90
12481;DHT22;6305;48.398;11.762;2022-11-23T04:18:45;1.90;99.90
12481;DHT22;6305;48.398;11.762;2022-11-23T04:21:11;1.90;99.90
12481;DHT22;6305;48.398;11.762;2022-11-23T04:23:38;1.80;99.90
12481;DHT22;6305;48.398;11.762;2022-11-23T04:26:05;1.80;99.90
12481;DHT22;6305;48.398;11.762;2022-11-23T04:28:33;1.70;99.90
12481;DHT22;6305;48.398;11.762;2022-11-23T04:31:00;1.70;99.90
12481;DHT22;6305;48.398;11.762;2022-11-23T04:33:27;1.60;99.90
12481;DHT22;6305;48.398;11.762;2022-11-23T04:35:56;1.70;99.90
12481;DHT22;6305;48.398;11.762;2022-11-23T04:38:22;1.70;99.90
12481;DHT22;6305;48.398;11.762;2022-11-23T04:40:49;1.70;99.90
12481;DHT22;6305;48.398;11.762;2022-11-23T04:43:16;1.70;99.90
12481;DHT22;6305;48.398;11.762;2022-11-23T04:45:44;1.70;99.90
12481;DHT22;6305;48.398;11.762;2022-11-23T04:48:11;1.70;99.90
12481;DHT22;6305;48.398;11.762;2022-11-23T04:50:38;1.70;99.90
12481;DHT22;6305;48.398;11.762;2022-11-23T04:53:06;1.80;99.90
12481;DHT22;6305;48.398;11.762;2022-11-23T04:55:33;1.80;99.90
12481;DHT22;6305;48.398;11.762;2022-11-23T04:58:00;1.90;99.90
12481;DHT22;6305;48.398;11.762;2022-11-23T05:00:27;1.90;99.90
12481;DHT22;6305;48.398;11.762;2022-11-23T05:02:58;1.90;99.90
12481;DHT22;6305;48.398;11.762;2022-11-23T05:05:24;1.90;99.90
12481;DHT22;6305;48.398;11.762;2022-11-23T05:07:51;1.90;99.90
12481;DHT22;6305;48.398;11.762;2022-11-23T05:10:18;1.90;99.90
12481;DHT22;6305;48.398;11.762;2022-11-23T05:12:44;1.90;99.90
12481;DHT22;6305;48.398;11.762;2022-11-23T05:15:12;1.90;99.90
12481;DHT22;6305;48.398;11.762;2022-11-23T05:17:39;1.90;99.90
12481;DHT22;6305;48.398;11.762;2022-11-23T05:20:09;1.90;99.90
12481;DHT22;6305;48.398;11.762;2022-11-23T05:22:36;1.90;99.90
12481;DHT22;6305;48.398;11.762;2022-11-23T05:25:03;1.90;99.90
12481;DHT22;6305;48.398;11.762;2022-11-23T05:27:30;1.90;99.90
12481;DHT22;6305;48.398;11.762;2022-11-23T05:29:59;1.90;99.90
12481;DHT22;6305;48.398;11.762;2022-11-23T05:32:26;2.00;99.90
12481;DHT22;6305;48.398;11.762;2022-11-23T05:34:53;1.90;99.90
12481;DHT22;6305;48.398;11.762;2022-11-23T05:37:21;1.90;99.90
12481;DHT22;6305;48.398;11.762;2022-11-23T05:39:47;2.00;99.90
12481;DHT22;6305;48.398;11.762;2022-11-23T05:42:14;2.00;99.90
12481;DHT22;6305;48.398;11.762;2022-11-23T05:44:41;1.90;99.90
12481;DHT22;6305;48.398;11.762;2022-11-23T05:47:08;1.90;99.90
12481;DHT22;6305;48.398;11.762;2022-11-23T05:49:35;2.00;99.90
12481;DHT22;6305;48.398;11.762;2022-11-23T05:52:01;2.00;99.90
12481;DHT22;6305;48.398;11.762;2022-11-23T05:54:29;1.90;99.90
12481;DHT22;6305;48.398;11.762;2022-11-23T05:56:56;1.90;99.90
12481;DHT22;6305;48.398;11.762;2022-11-23T05:59:23;1.90;99.90
12481;DHT22;6305;48.398;11.762;2022-11-23T06:01:50;2.00;99.90
12481;DHT22;6305;48.398;11.762;2022-11-23T06:04:17;1.90;99.90
12481;DHT22;6305;48.398;11.762;2022-11-23T06:06:43;2.00;99.90
12481;DHT22;6305;48.398;11.762;2022-11-23T06:09:10;2.00;99.90
12481;DHT22;6305;48.398;11.762;2022-11-23T06:11:38;2.00;99.90
12481;DHT22;6305;48.398;11.762;2022-11-23T06:14:05;2.00;99.90
12481;DHT22;6305;48.398;11.762;2022-11-23T06:16:32;2.00;99.90
12481;DHT22;6305;48.398;11.762;2022-11-23T06:18:59;2.10;99.90
12481;DHT22;6305;48.398;11.762;2022-11-23T06:21:26;2.10;99.90
12481;DHT22;6305;48.398;11.762;2022-11-23T06:23:53;2.10;99.90
12481;DHT22;6305;48.398;11.762;2022-11-23T06:26:20;2.00;99.90
12481;DHT22;6305;48.398;11.762;2022-11-23T06:28:48;2.10;99.90
12481;DHT22;6305;48.398;11.762;2022-11-23T06:31:14;2.10;99.90
12481;DHT22;6305;48.398;11.762;2022-11-23T06:33:41;2.10;99.90
12481;DHT22;6305;48.398;11.762;2022-11-23T06:36:09;2.10;99.90
12481;DHT22;6305;48.398;11.762;2022-11-23T06:38:36;2.20;99.90
12481;DHT22;6305;48.398;11.762;2022-11-23T06:41:04;2.20;99.90
12481;DHT22;6305;48.398;11.762;2022-11-23T06:43:45;2.30;99.90
12481;DHT22;6305;48.398;11.762;2022-11-23T06:46:24;2.40;99.90
12481;DHT22;6305;48.398;11.762;2022-11-23T06:48:51;2.50;99.90
12481;DHT22;6305;48.398;11.762;2022-11-23T06:51:18;2.60;99.90
12481;DHT22;6305;48.398;11.762;2022-11-23T06:53:44;2.70;99.90
12481;DHT22;6305;48.398;11.762;2022-11-23T06:56:11;2.90;99.90
12481;DHT22;6305;48.398;11.762;2022-11-23T06:58:38;3.00;99.90
12481;DHT22;6305;48.398;11.762;2022-11-23T07:01:06;3.10;99.90
12481;DHT22;6305;48.398;11.762;2022-11-23T07:03:35;3.20;99.90
12481;DHT22;6305;48.398;11.762;2022-11-23T07:06:04;3.40;99.90
12481;DHT22;6305;48.398;11.762;2022-11-23T07:08:31;3.50;99.90
12481;DHT22;6305;48.398;11.762;2022-11-23T07:11:00;3.60;99.90
12481;DHT22;6305;48.398;11.762;2022-11-23T07:13:27;3.70;99.90
12481;DHT22;6305;48.398;11.762;2022-11-23T07:15:54;3.70;99.90
12481;DHT22;6305;48.398;11.762;2022-11-23T07:18:22;3.60;99.90
12481;DHT22;6305;48.398;11.762;2022-11-23T07:20:50;3.60;99.90
12481;DHT22;6305;48.398;11.762;2022-11-23T07:23:17;3.70;99.90
12481;DHT22;6305;48.398;11.762;2022-11-23T07:25:44;3.70;99.90
12481;DHT22;6305;48.398;11.762;2022-11-23T07:28:11;3.90;99.90
12481;DHT22;6305;48.398;11.762;2022-11-23T07:30:38;3.90;99.90
12481;DHT22;6305;48.398;11.762;2022-11-23T07:33:06;4.00;99.90
12481;DHT22;6305;48.398;11.762;2022-11-23T07:35:34;4.10;99.90
12481;DHT22;6305;48.398;11.762;2022-11-23T07:38:02;4.10;99.90
12481;DHT22;6305;48.398;11.762;2022-11-23T07:40:30;4.20;99.90
12481;DHT22;6305;48.398;11.762;2022-11-23T07:43:00;4.30;99.90
12481;DHT22;6305;48.398;11.762;2022-11-23T07:45:28;4.40;99.90
12481;DHT22;6305;48.398;11.762;2022-11-23T07:47:58;4.50;99.90
12481;DHT22;6305;48.398;11.762;2022-11-23T07:50:26;4.60;99.90
12481;DHT22;6305;48.398;11.762;2022-11-23T07:52:53;4.70;99.90
12481;DHT22;6305;48.398;11.762;2022-11-23T07:55:21;4.80;99.90
12481;DHT22;6305;48.398;11.762;2022-11-23T07:57:51;4.90;99.90
12481;DHT22;6305;48.398;11.762;2022-11-23T08:00:18;5.00;99.90
12481;DHT22;6305;48.398;11.762;2022-11-23T08:02:45;5.20;99.90
12481;DHT22;6305;48.398;11.762;2022-11-23T08:05:12;5.40;99.90
12481;DHT22;6305;48.398;11.762;2022-11-23T08:07:39;5.50;99.90
12481;DHT22;6305;48.398;11.762;2022-11-23T08:13:29;5.60;99.90
12481;DHT22;6305;48.398;11.762;2022-11-23T08:15:59;5.80;99.90
12481;DHT22;6305;48.398;11.762;2022-11-23T08:18:26;5.90;99.90
12481;DHT22;6305;48.398;11.762;2022-11-23T08:20:53;6.00;99.90
12481;DHT22;6305;48.398;11.762;2022-11-23T08:23:20;5.90;99.90
12481;DHT22;6305;48.398;11.762;2022-11-23T08:25:47;5.90;99.90
12481;DHT22;6305;48.398;11.762;2022-11-23T08:28:14;6.20;99.90
12481;DHT22;6305;48.398;11.762;2022-11-23T08:30:42;6.50;99.90
12481;DHT22;6305;48.398;11.762;2022-11-23T08:33:09;6.40;99.90
12481;DHT22;6305;48.398;11.762;2022-11-23T08:35:39;6.30;99.90
12481;DHT22;6305;48.398;11.762;2022-11-23T08:38:07;6.10;99.90
12481;DHT22;6305;48.398;11.762;2022-11-23T08:40:35;6.00;99.90
12481;DHT22;6305;48.398;11.762;2022-11-23T08:43:02;6.10;99.90
12481;DHT22;6305;48.398;11.762;2022-11-23T08:45:29;6.30;99.90
12481;DHT22;6305;48.398;11.762;2022-11-23T08:47:59;6.50;99.90
12481;DHT22;6305;48.398;11.762;2022-11-23T08:50:27;6.70;99.90
12481;DHT22;6305;48.398;11.762;2022-11-23T08:52:55;6.80;99.90
12481;DHT22;6305;48.398;11.762;2022-11-23T08:55:22;6.70;99.90
12481;DHT22;6305;48.398;11.762;2022-11-23T08:57:49;6.70;99.90
12481;DHT22;6305;48.398;11.762;2022-11-23T09:00:16;6.70;99.90
12481;DHT22;6305;48.398;11.762;2022-11-23T09:02:44;6.70;99.90
12481;DHT22;6305;48.398;11.762;2022-11-23T09:05:13;6.80;99.90
12481;DHT22;6305;48.398;11.762;2022-11-23T09:07:39;7.00;99.90
12481;DHT22;6305;48.398;11.762;2022-11-23T09:10:06;7.00;99.90
12481;DHT22;6305;48.398;11.762;2022-11-23T09:12:33;7.10;99.90
12481;DHT22;6305;48.398;11.762;2022-11-23T09:15:00;7.10;99.90
12481;DHT22;6305;48.398;11.762;2022-11-23T09:17:28;7.20;99.90
12481;DHT22;6305;48.398;11.762;2022-11-23T09:19:56;7.20;99.90
12481;DHT22;6305;48.398;11.762;2022-11-23T09:22:24;7.40;99.90
12481;DHT22;6305;48.398;11.762;2022-11-23T09:24:51;7.70;99.90
12481;DHT22;6305;48.398;11.762;2022-11-23T09:27:17;7.80;99.90
12481;DHT22;6305;48.398;11.762;2022-11-23T09:29:44;7.90;99.90
12481;DHT22;6305;48.398;11.762;2022-11-23T09:32:11;8.00;99.90
12481;DHT22;6305;48.398;11.762;2022-11-23T09:34:38;8.10;99.90
12481;DHT22;6305;48.398;11.762;2022-11-23T09:37:04;8.10;99.90
12481;DHT22;6305;48.398;11.762;2022-11-23T09:39:33;8.10;99.90
12481;DHT22;6305;48.398;11.762;2022-11-23T09:45:10;8.10;99.90
12481;DHT22;6305;48.398;11.762;2022-11-23T09:47:49;8.50;99.90
12481;DHT22;6305;48.398;11.762;2022-11-23T09:50:26;8.70;99.90
12481;DHT22;6305;48.398;11.762;2022-11-23T09:52:53;9.00;99.90
12481;DHT22;6305;48.398;11.762;2022-11-23T09:55:38;9.00;99.90
12481;DHT22;6305;48.398;11.762;2022-11-23T09:58:11;9.00;99.90
12481;DHT22;6305;48.398;11.762;2022-11-23T10:00:42;9.10;99.90
12481;DHT22;6305;48.398;11.762;2022-11-23T10:03:14;9.20;99.90
12481;DHT22;6305;48.398;11.762;2022-11-23T10:05:46;9.50;99.90
12481;DHT22;6305;48.398;11.762;2022-11-23T10:08:20;9.90;99.90
12481;DHT22;6305;48.398;11.762;2022-11-23T10:10:55;10.60;99.90
12481;DHT22;6305;48.398;11.762;2022-11-23T10:13:33;12.20;99.90
12481;DHT22;6305;48.398;11.762;2022-11-23T10:16:16;14.00;99.90
12481;DHT22;6305;48.398;11.762;2022-11-23T10:18:54;15.90;99.90
12481;DHT22;6305;48.398;11.762;2022-11-23T10:21:29;18.50;99.90
12481;DHT22;6305;48.398;11.762;2022-11-23T10:24:09;20.10;99.90
12481;DHT22;6305;48.398;11.762;2022-11-23T10:26:41;21.40;99.90
12481;DHT22;6305;48.398;11.762;2022-11-23T10:29:13;22.40;99.90
12481;DHT22;6305;48.398;11.762;2022-11-23T10:31:40;23.10;99.90
12481;DHT22;6305;48.398;11.762;2022-11-23T10:34:10;23.40;98.10
12481;DHT22;6305;48.398;11.762;2022-11-23T10:36:38;24.20;93.50
12481;DHT22;6305;48.398;11.762;2022-11-23T10:39:15;25.20;82.90
12481;DHT22;6305;48.398;11.762;2022-11-23T10:41:44;25.70;66.80
12481;DHT22;6305;48.398;11.762;2022-11-23T10:44:24;25.50;58.20
12481;DHT22;6305;48.398;11.762;2022-11-23T10:46:52;25.10;53.30
12481;DHT22;6305;48.398;11.762;2022-11-23T10:49:20;24.90;52.50
12481;DHT22;6305;48.398;11.762;2022-11-23T10:51:50;25.30;53.00
12481;DHT22;6305;48.398;11.762;2022-11-23T10:54:21;26.10;53.10
12481;DHT22;6305;48.398;11.762;2022-11-23T10:56:50;26.80;50.60
12481;DHT22;6305;48.398;11.762;2022-11-23T10:59:26;27.30;47.80
12481;DHT22;6305;48.398;11.762;2022-11-23T11:02:08;27.50;47.90
12481;DHT22;6305;48.398;11.762;2022-11-23T11:04:36;28.40;47.10
12481;DHT22;6305;48.398;11.762;2022-11-23T11:09:54;29.50;44.80
12481;DHT22;6305;48.398;11.762;2022-11-23T11:12:23;30.00;42.00
12481;DHT22;6305;48.398;11.762;2022-11-23T11:15:01;30.30;40.80
12481;DHT22;6305;48.398;11.762;2022-11-23T11:17:30;28.30;37.10
12481;DHT22;6305;48.398;11.762;2022-11-23T11:19:57;26.30;40.00
12481;DHT22;6305;48.398;11.762;2022-11-23T11:22:28;26.70;44.50
12481;DHT22;6305;48.398;11.762;2022-11-23T11:24:55;27.10;42.10
12481;DHT22;6305;48.398;11.762;2022-11-23T11:27:24;27.00;40.50
12481;DHT22;6305;48.398;11.762;2022-11-23T11:29:54;26.90;40.50
12481;DHT22;6305;48.398;11.762;2022-11-23T11:32:25;26.70;41.30
12481;DHT22;6305;48.398;11.762;2022-11-23T11:34:59;26.90;39.60
12481;DHT22;6305;48.398;11.762;2022-11-23T11:37:32;26.60;39.60
12481;DHT22;6305;48.398;11.762;2022-11-23T11:40:07;26.30;39.00
12481;DHT22;6305;48.398;11.762;2022-11-23T11:42:40;25.80;41.00
12481;DHT22;6305;48.398;11.762;2022-11-23T11:45:15;25.80;41.70
12481;DHT22;6305;48.398;11.762;2022-11-23T11:47:46;25.70;40.60
12481;DHT22;6305;48.398;11.762;2022-11-23T11:50:20;25.80;39.90
12481;DHT22;6305;48.398;11.762;2022-11-23T11:52:52;25.90;40.80
12481;DHT22;6305;48.398;11.762;2022-11-23T11:55:24;26.00;39.70
12481;DHT22;6305;48.398;11.762;2022-11-23T11:57:58;25.80;39.50
12481;DHT22;6305;48.398;11.762;2022-11-23T12:00:28;24.30;38.50
12481;DHT22;6305;48.398;11.762;2022-11-23T12:03:03;22.90;39.50
12481;DHT22;6305;48.398;11.762;2022-11-23T12:05:38;23.30;42.30
12481;DHT22;6305;48.398;11.762;2022-11-23T12:08:11;24.50;42.80
12481;DHT22;6305;48.398;11.762;2022-11-23T12:10:42;25.50;40.70
12481;DHT22;6305;48.398;11.762;2022-11-23T12:13:13;25.80;38.50
12481;DHT22;6305;48.398;11.762;2022-11-23T12:15:45;25.50;38.40
12481;DHT22;6305;48.398;11.762;2022-11-23T12:18:23;25.90;38.80
12481;DHT22;6305;48.398;11.762;2022-11-23T12:21:02;26.60;39.20
12481;DHT22;6305;48.398;11.762;2022-11-23T12:23:38;27.00;38.00
12481;DHT22;6305;48.398;11.762;2022-11-23T12:26:16;27.00;34.40
12481;DHT22;6305;48.398;11.762;2022-11-23T12:28:56;26.40;35.60
12481;DHT22;6305;48.398;11.762;2022-11-23T12:31:32;25.90;36.40
12481;DHT22;6305;48.398;11.762;2022-11-23T12:34:16;25.50;35.70
12481;DHT22;6305;48.398;11.762;2022-11-23T12:37:03;23.90;36.30
12481;DHT22;6305;48.398;11.762;2022-11-23T12:42:40;24.00;39.50
12481;DHT22;6305;48.398;11.762;2022-11-23T12:45:21;24.40;38.30
12481;DHT22;6305;48.398;11.762;2022-11-23T12:47:58;25.10;37.80
12481;DHT22;6305;48.398;11.762;2022-11-23T12:50:30;25.80;36.80
12481;DHT22;6305;48.398;11.762;2022-11-23T12:53:24;26.00;35.40
12481;DHT22;6305;48.398;11.762;2022-11-23T12:56:02;25.80;34.70
12481;DHT22;6305;48.398;11.762;2022-11-23T12:58:36;25.70;34.80
12481;DHT22;6305;48.398;11.762;2022-11-23T13:01:09;25.30;35.20
12481;DHT22;6305;48.398;11.762;2022-11-23T13:04:07;25.30;36.00
12481;DHT22;6305;48.398;11.762;2022-11-23T13:09:51;26.30;35.00
12481;DHT22;6305;48.398;11.762;2022-11-23T13:12:30;25.80;34.20
12481;DHT22;6305;48.398;11.762;2022-11-23T13:15:15;25.00;34.80
12481;DHT22;6305;48.398;11.762;2022-11-23T13:18:02;24.00;35.10
12481;DHT22;6305;48.398;11.762;2022-11-23T13:20:57;23.20;37.40
12481;DHT22;6305;48.398;11.762;2022-11-23T13:23:33;23.60;37.60
12481;DHT22;6305;48.398;11.762;2022-11-23T13:26:14;24.00;37.40
12481;DHT22;6305;48.398;11.762;2022-11-23T13:28:41;24.00;36.30
12481;DHT22;6305;48.398;11.762;2022-11-23T13:31:20;24.00;37.20
12481;DHT22;6305;48.398;11.762;2022-11-23T13:33:50;24.70;36.80
12481;DHT22;6305;48.398;11.762;2022-11-23T13:36:40;25.30;36.40
12481;DHT22;6305;48.398;11.762;2022-11-23T13:42:18;25.50;34.40
12481;DHT22;6305;48.398;11.762;2022-11-23T13:44:45;24.80;34.60
12481;DHT22;6305;48.398;11.762;2022-11-23T13:47:18;24.00;35.90
12481;DHT22;6305;48.398;11.762;2022-11-23T13:49:48;23.20;36.40
12481;DHT22;6305;48.398;11.762;2022-11-23T13:52:34;22.60;37.60
12481;DHT22;6305;48.398;11.762;2022-11-23T13:55:06;22.80;38.70
12481;DHT22;6305;48.398;11.762;2022-11-23T13:57:45;23.00;38.00
12481;DHT22;6305;48.398;11.762;2022-11-23T14:00:44;22.60;37.00
12481;DHT22;6305;48.398;11.762;2022-11-23T14:03:49;21.80;38.50
12481;DHT22;6305;48.398;11.762;2022-11-23T14:06:24;20.20;40.70
12481;DHT22;6305;48.398;11.762;2022-11-23T14:08:59;19.40;42.30
12481;DHT22;6305;48.398;11.762;2022-11-23T14:11:28;18.70;43.80
12481;DHT22;6305;48.398;11.762;2022-11-23T14:14:01;18.80;45.00
12481;DHT22;6305;48.398;11.762;2022-11-23T14:19:34;19.50;44.60
12481;DHT22;6305;48.398;11.762;2022-11-23T14:22:17;19.70;43.40
12481;DHT22;6305;48.398;11.762;2022-11-23T14:25:10;20.00;43.80
12481;DHT22;6305;48.398;11.762;2022-11-23T14:27:45;20.10;43.90
12481;DHT22;6305;48.398;11.762;2022-11-23T14:30:33;20.00;43.60
12481;DHT22;6305;48.398;11.762;2022-11-23T14:33:23;19.50;43.40
12481;DHT22;6305;48.398;11.762;2022-11-23T14:35:58;19.00;44.60
12481;DHT22;6305;48.398;11.762;2022-11-23T14:41:35;18.40;46.30
12481;DHT22;6305;48.398;11.762;2022-11-23T14:44:03;17.80;46.70
12481;DHT22;6305;48.398;11.762;2022-11-23T14:46:31;17.00;47.70
12481;DHT22;6305;48.398;11.762;2022-11-23T14:49:05;15.90;48.10
12481;DHT22;6305;48.398;11.762;2022-11-23T14:51:33;14.50;50.30
12481;DHT22;6305;48.398;11.762;2022-11-23T14:54:09;13.00;53.00
12481;DHT22;6305;48.398;11.762;2022-11-23T14:56:39;11.70;56.30
12481;DHT22;6305;48.398;11.762;2022-11-23T14:59:14;10.50;59.40
12481;DHT22;6305;48.398;11.762;2022-11-23T15:01:47;9.60;65.30
12481;DHT22;6305;48.398;11.762;2022-11-23T15:04:22;8.90;72.00
12481;DHT22;6305;48.398;11.762;2022-11-23T15:06:53;8.30;83.00
12481;DHT22;6305;48.398;11.762;2022-11-23T15:09:37;7.70;93.20
12481;DHT22;6305;48.398;11.762;2022-11-23T15:12:05;7.20;99.90
12481;DHT22;6305;48.398;11.762;2022-11-23T15:14:32;6.90;99.90
12481;DHT22;6305;48.398;11.762;2022-11-23T15:17:12;6.50;99.90
12481;DHT22;6305;48.398;11.762;2022-11-23T15:19:40;6.20;99.90
12481;DHT22;6305;48.398;11.762;2022-11-23T15:22:13;5.80;99.90
12481;DHT22;6305;48.398;11.762;2022-11-23T15:24:43;5.60;99.90
12481;DHT22;6305;48.398;11.762;2022-11-23T15:27:14;5.30;99.90
12481;DHT22;6305;48.398;11.762;2022-11-23T15:29:50;5.10;99.90
12481;DHT22;6305;48.398;11.762;2022-11-23T15:32:25;4.80;99.90
12481;DHT22;6305;48.398;11.762;2022-11-23T15:34:53;4.60;99.90
12481;DHT22;6305;48.398;11.762;2022-11-23T15:37:22;4.40;99.90
12481;DHT22;6305;48.398;11.762;2022-11-23T15:39:52;4.20;99.90
12481;DHT22;6305;48.398;11.762;2022-11-23T15:42:22;4.10;99.90
12481;DHT22;6305;48.398;11.762;2022-11-23T15:44:50;3.90;99.90
12481;DHT22;6305;48.398;11.762;2022-11-23T15:47:20;3.80;99.90
12481;DHT22;6305;48.398;11.762;2022-11-23T15:49:48;3.60;99.90
12481;DHT22;6305;48.398;11.762;2022-11-23T15:52:18;3.50;99.90
12481;DHT22;6305;48.398;11.762;2022-11-23T15:54:46;3.40;99.90
12481;DHT22;6305;48.398;11.762;2022-11-23T15:57:18;3.30;99.90
12481;DHT22;6305;48.398;11.762;2022-11-23T15:59:49;3.10;99.90
12481;DHT22;6305;48.398;11.762;2022-11-23T16:02:21;3.00;99.90
12481;DHT22;6305;48.398;11.762;2022-11-23T16:05:02;2.90;99.90
12481;DHT22;6305;48.398;11.762;2022-11-23T16:07:30;2.80;99.90
12481;DHT22;6305;48.398;11.762;2022-11-23T16:10:18;2.70;99.90
12481;DHT22;6305;48.398;11.762;2022-11-23T16:12:48;2.60;99.90
12481;DHT22;6305;48.398;11.762;2022-11-23T16:15:38;2.50;99.90
12481;DHT22;6305;48.398;11.762;2022-11-23T16:18:20;2.40;99.90
12481;DHT22;6305;48.398;11.762;2022-11-23T16:20:50;2.30;99.90
12481;DHT22;6305;48.398;11.762;2022-11-23T16:23:20;2.30;99.90
12481;DHT22;6305;48.398;11.762;2022-11-23T16:25:53;2.20;99.90
12481;DHT22;6305;48.398;11.762;2022-11-23T16:28:26;2.20;99.90